sensor_id;sensor_type;location;lat;lon;timestamp;P1;durP1;ratioP1;P2;durP2;ratioP2
6785;SDS011;3430;51.192;6.048;2022-09-02T00:01:34;1.90;;;1.47;;
6785;SDS011;3430;51.192;6.048;2022-09-02T00:04:03;2.40;;;1.77;;
6785;SDS011;3430;51.192;6.048;2022-09-02T00:06:29;2.33;;;1.87;;
6785;SDS011;3430;51.192;6.048;2022-09-02T00:08:55;2.17;;;1.97;;
6785;SDS011;3430;51.192;6.048;2022-09-02T00:11:22;2.27;;;1.70;;
6785;SDS011;3430;51.192;6.048;2022-09-02T00:13:48;1.50;;;1.40;;
6785;SDS011;3430;51.192;6.048;2022-09-02T00:16:14;2.57;;;1.60;;
6785;SDS011;3430;51.192;6.048;2022-09-02T00:18:40;1.80;;;1.53;;
6785;SDS011;3430;51.192;6.048;2022-09-02T00:21:05;1.67;;;1.50;;
6785;SDS011;3430;51.192;6.048;2022-09-02T00:23:31;2.03;;;1.47;;
6785;SDS011;3430;51.192;6.048;2022-09-02T00:25:57;1.90;;;1.57;;
6785;SDS011;3430;51.192;6.048;2022-09-02T00:28:23;1.47;;;1.37;;
6785;SDS011;3430;51.192;6.048;2022-09-02T00:30:48;1.53;;;1.43;;
6785;SDS011;3430;51.192;6.048;2022-09-02T00:33:14;1.80;;;1.70;;
6785;SDS011;3430;51.192;6.048;2022-09-02T00:35:39;1.83;;;1.67;;
6785;SDS011;3430;51.192;6.048;2022-09-02T00:38:05;2.17;;;1.50;;
6785;SDS011;3430;51.192;6.048;2022-09-02T00:40:31;1.87;;;1.50;;
6785;SDS011;3430;51.192;6.048;2022-09-02T00:42:56;3.40;;;1.80;;
6785;SDS011;3430;51.192;6.048;2022-09-02T00:45:22;2.17;;;1.60;;
6785;SDS011;3430;51.192;6.048;2022-09-02T00:47:48;1.50;;;1.40;;
6785;SDS011;3430;51.192;6.048;2022-09-02T00:50:17;2.13;;;1.70;;
6785;SDS011;3430;51.192;6.048;2022-09-02T00:52:45;1.77;;;1.67;;
6785;SDS011;3430;51.192;6.048;2022-09-02T00:55:13;2.73;;;1.63;;
6785;SDS011;3430;51.192;6.048;2022-09-02T00:57:41;1.80;;;1.70;;
6785;SDS011;3430;51.192;6.048;2022-09-02T01:00:13;2.07;;;1.50;;
6785;SDS011;3430;51.192;6.048;2022-09-02T01:02:41;2.60;;;1.60;;
6785;SDS011;3430;51.192;6.048;2022-09-02T01:05:08;1.60;;;1.40;;
6785;SDS011;3430;51.192;6.048;2022-09-02T01:07:35;2.87;;;1.60;;
6785;SDS011;3430;51.192;6.048;2022-09-02T01:10:07;2.43;;;1.60;;
6785;SDS011;3430;51.192;6.048;2022-09-02T01:12:33;2.50;;;1.93;;
6785;SDS011;3430;51.192;6.048;2022-09-02T01:15:00;2.17;;;1.60;;
6785;SDS011;3430;51.192;6.048;2022-09-02T01:17:25;4.30;;;1.80;;
6785;SDS011;3430;51.192;6.048;2022-09-02T01:19:52;4.10;;;1.60;;
6785;SDS011;3430;51.192;6.048;2022-09-02T01:22:26;1.67;;;1.57;;
6785;SDS011;3430;51.192;6.048;2022-09-02T01:24:52;2.73;;;1.80;;
6785;SDS011;3430;51.192;6.048;2022-09-02T01:27:20;1.70;;;1.60;;
6785;SDS011;3430;51.192;6.048;2022-09-02T01:29:50;2.43;;;1.80;;
6785;SDS011;3430;51.192;6.048;2022-09-02T01:32:16;2.07;;;1.80;;
6785;SDS011;3430;51.192;6.048;2022-09-02T01:34:41;2.20;;;1.60;;
6785;SDS011;3430;51.192;6.048;2022-09-02T01:37:07;2.13;;;1.70;;
6785;SDS011;3430;51.192;6.048;2022-09-02T01:39:32;2.20;;;1.70;;
6785;SDS011;3430;51.192;6.048;2022-09-02T01:41:58;1.73;;;1.60;;
6785;SDS011;3430;51.192;6.048;2022-09-02T01:44:24;2.43;;;1.97;;
6785;SDS011;3430;51.192;6.048;2022-09-02T01:46:51;1.70;;;1.60;;
6785;SDS011;3430;51.192;6.048;2022-09-02T01:49:17;2.20;;;1.80;;
6785;SDS011;3430;51.192;6.048;2022-09-02T01:51:42;1.97;;;1.40;;
6785;SDS011;3430;51.192;6.048;2022-09-02T01:54:08;2.53;;;1.80;;
6785;SDS011;3430;51.192;6.048;2022-09-02T01:56:33;2.43;;;1.70;;
6785;SDS011;3430;51.192;6.048;2022-09-02T01:58:58;1.63;;;1.43;;
6785;SDS011;3430;51.192;6.048;2022-09-02T02:01:24;1.83;;;1.73;;
6785;SDS011;3430;51.192;6.048;2022-09-02T02:03:49;1.77;;;1.67;;
6785;SDS011;3430;51.192;6.048;2022-09-02T02:06:15;8.43;;;1.80;;
6785;SDS011;3430;51.192;6.048;2022-09-02T02:08:41;3.30;;;1.80;;
6785;SDS011;3430;51.192;6.048;2022-09-02T02:11:07;1.60;;;1.50;;
6785;SDS011;3430;51.192;6.048;2022-09-02T02:13:33;2.20;;;1.60;;
6785;SDS011;3430;51.192;6.048;2022-09-02T02:15:58;1.60;;;1.50;;
6785;SDS011;3430;51.192;6.048;2022-09-02T02:18:24;2.43;;;1.77;;
6785;SDS011;3430;51.192;6.048;2022-09-02T02:20:49;1.77;;;1.63;;
6785;SDS011;3430;51.192;6.048;2022-09-02T02:23:15;2.00;;;1.50;;
6785;SDS011;3430;51.192;6.048;2022-09-02T02:25:41;3.83;;;1.80;;
6785;SDS011;3430;51.192;6.048;2022-09-02T02:28:06;1.97;;;1.40;;
6785;SDS011;3430;51.192;6.048;2022-09-02T02:30:32;1.93;;;1.63;;
6785;SDS011;3430;51.192;6.048;2022-09-02T02:32:57;1.60;;;1.50;;
6785;SDS011;3430;51.192;6.048;2022-09-02T02:35:23;3.10;;;1.80;;
6785;SDS011;3430;51.192;6.048;2022-09-02T02:37:48;2.93;;;1.83;;
6785;SDS011;3430;51.192;6.048;2022-09-02T02:40:18;1.87;;;1.50;;
6785;SDS011;3430;51.192;6.048;2022-09-02T02:42:45;2.37;;;1.50;;
6785;SDS011;3430;51.192;6.048;2022-09-02T02:45:10;1.77;;;1.50;;
6785;SDS011;3430;51.192;6.048;2022-09-02T02:47:41;3.13;;;1.60;;
6785;SDS011;3430;51.192;6.048;2022-09-02T02:50:08;1.60;;;1.50;;
6785;SDS011;3430;51.192;6.048;2022-09-02T02:52:34;1.83;;;1.47;;
6785;SDS011;3430;51.192;6.048;2022-09-02T02:55:00;2.00;;;1.70;;
6785;SDS011;3430;51.192;6.048;2022-09-02T02:57:25;2.47;;;1.83;;
6785;SDS011;3430;51.192;6.048;2022-09-02T02:59:51;3.10;;;1.70;;
6785;SDS011;3430;51.192;6.048;2022-09-02T03:02:16;4.60;;;1.57;;
6785;SDS011;3430;51.192;6.048;2022-09-02T03:04:42;3.07;;;1.80;;
6785;SDS011;3430;51.192;6.048;2022-09-02T03:07:07;1.80;;;1.40;;
6785;SDS011;3430;51.192;6.048;2022-09-02T03:09:33;4.30;;;1.70;;
6785;SDS011;3430;51.192;6.048;2022-09-02T03:11:59;2.20;;;1.70;;
6785;SDS011;3430;51.192;6.048;2022-09-02T03:14:24;1.73;;;1.53;;
6785;SDS011;3430;51.192;6.048;2022-09-02T03:16:50;2.03;;;1.83;;
6785;SDS011;3430;51.192;6.048;2022-09-02T03:19:16;3.03;;;1.77;;
6785;SDS011;3430;51.192;6.048;2022-09-02T03:21:41;1.87;;;1.50;;
6785;SDS011;3430;51.192;6.048;2022-09-02T03:24:07;2.37;;;1.67;;
6785;SDS011;3430;51.192;6.048;2022-09-02T03:26:33;2.00;;;1.80;;
6785;SDS011;3430;51.192;6.048;2022-09-02T03:28:59;2.37;;;1.53;;
6785;SDS011;3430;51.192;6.048;2022-09-02T03:31:24;5.80;;;1.50;;
6785;SDS011;3430;51.192;6.048;2022-09-02T03:33:50;4.13;;;2.10;;
6785;SDS011;3430;51.192;6.048;2022-09-02T03:36:19;2.83;;;1.90;;
6785;SDS011;3430;51.192;6.048;2022-09-02T03:38:45;2.53;;;1.70;;
6785;SDS011;3430;51.192;6.048;2022-09-02T03:41:11;4.63;;;2.33;;
6785;SDS011;3430;51.192;6.048;2022-09-02T03:43:36;2.27;;;1.80;;
6785;SDS011;3430;51.192;6.048;2022-09-02T03:46:01;1.60;;;1.50;;
6785;SDS011;3430;51.192;6.048;2022-09-02T03:48:27;2.40;;;1.73;;
6785;SDS011;3430;51.192;6.048;2022-09-02T03:50:54;1.70;;;1.60;;
6785;SDS011;3430;51.192;6.048;2022-09-02T03:53:19;2.77;;;1.80;;
6785;SDS011;3430;51.192;6.048;2022-09-02T03:55:45;2.00;;;1.40;;
6785;SDS011;3430;51.192;6.048;2022-09-02T03:58:10;2.13;;;1.60;;
6785;SDS011;3430;51.192;6.048;2022-09-02T04:00:36;3.13;;;1.70;;
6785;SDS011;3430;51.192;6.048;2022-09-02T04:03:02;3.17;;;1.70;;
6785;SDS011;3430;51.192;6.048;2022-09-02T04:05:27;1.70;;;1.60;;
6785;SDS011;3430;51.192;6.048;2022-09-02T04:07:53;2.67;;;1.70;;
6785;SDS011;3430;51.192;6.048;2022-09-02T04:10:19;1.97;;;1.67;;
6785;SDS011;3430;51.192;6.048;2022-09-02T04:12:46;1.50;;;1.40;;
6785;SDS011;3430;51.192;6.048;2022-09-02T04:15:12;1.67;;;1.50;;
6785;SDS011;3430;51.192;6.048;2022-09-02T04:17:39;1.73;;;1.60;;
6785;SDS011;3430;51.192;6.048;2022-09-02T04:20:05;2.00;;;1.63;;
6785;SDS011;3430;51.192;6.048;2022-09-02T04:22:31;1.90;;;1.77;;
6785;SDS011;3430;51.192;6.048;2022-09-02T04:24:57;2.57;;;2.23;;
6785;SDS011;3430;51.192;6.048;2022-09-02T04:27:22;4.40;;;1.70;;
6785;SDS011;3430;51.192;6.048;2022-09-02T04:29:48;2.30;;;1.60;;
6785;SDS011;3430;51.192;6.048;2022-09-02T04:32:14;1.90;;;1.70;;
6785;SDS011;3430;51.192;6.048;2022-09-02T04:34:39;1.70;;;1.60;;
6785;SDS011;3430;51.192;6.048;2022-09-02T04:37:05;2.27;;;1.80;;
6785;SDS011;3430;51.192;6.048;2022-09-02T04:39:30;4.07;;;1.90;;
6785;SDS011;3430;51.192;6.048;2022-09-02T04:41:56;2.10;;;1.67;;
6785;SDS011;3430;51.192;6.048;2022-09-02T04:44:21;1.90;;;1.43;;
6785;SDS011;3430;51.192;6.048;2022-09-02T04:46:47;1.40;;;1.27;;
6785;SDS011;3430;51.192;6.048;2022-09-02T04:49:12;3.57;;;1.87;;
6785;SDS011;3430;51.192;6.048;2022-09-02T04:51:38;2.50;;;1.80;;
6785;SDS011;3430;51.192;6.048;2022-09-02T04:54:03;2.87;;;2.00;;
6785;SDS011;3430;51.192;6.048;2022-09-02T04:56:29;1.77;;;1.67;;
6785;SDS011;3430;51.192;6.048;2022-09-02T04:58:56;2.17;;;1.60;;
6785;SDS011;3430;51.192;6.048;2022-09-02T05:01:24;1.67;;;1.57;;
6785;SDS011;3430;51.192;6.048;2022-09-02T05:03:50;2.27;;;2.07;;
6785;SDS011;3430;51.192;6.048;2022-09-02T05:06:17;3.33;;;1.70;;
6785;SDS011;3430;51.192;6.048;2022-09-02T05:08:42;2.57;;;1.70;;
6785;SDS011;3430;51.192;6.048;2022-09-02T05:11:09;1.80;;;1.70;;
6785;SDS011;3430;51.192;6.048;2022-09-02T05:13:35;3.87;;;1.83;;
6785;SDS011;3430;51.192;6.048;2022-09-02T05:16:00;3.17;;;1.77;;
6785;SDS011;3430;51.192;6.048;2022-09-02T05:18:26;2.33;;;1.70;;
6785;SDS011;3430;51.192;6.048;2022-09-02T05:20:52;2.30;;;1.67;;
6785;SDS011;3430;51.192;6.048;2022-09-02T05:23:17;1.90;;;1.70;;
6785;SDS011;3430;51.192;6.048;2022-09-02T05:25:42;2.53;;;1.57;;
6785;SDS011;3430;51.192;6.048;2022-09-02T05:28:08;2.00;;;1.60;;
6785;SDS011;3430;51.192;6.048;2022-09-02T05:30:34;5.00;;;1.60;;
6785;SDS011;3430;51.192;6.048;2022-09-02T05:32:59;2.83;;;1.80;;
6785;SDS011;3430;51.192;6.048;2022-09-02T05:35:25;2.10;;;1.73;;
6785;SDS011;3430;51.192;6.048;2022-09-02T05:37:50;2.60;;;1.83;;
6785;SDS011;3430;51.192;6.048;2022-09-02T05:40:15;1.73;;;1.60;;
6785;SDS011;3430;51.192;6.048;2022-09-02T05:42:40;2.10;;;1.70;;
6785;SDS011;3430;51.192;6.048;2022-09-02T05:45:06;3.23;;;1.43;;
6785;SDS011;3430;51.192;6.048;2022-09-02T05:47:34;3.50;;;3.20;;
6785;SDS011;3430;51.192;6.048;2022-09-02T05:49:59;3.23;;;1.60;;
6785;SDS011;3430;51.192;6.048;2022-09-02T05:52:26;2.87;;;1.60;;
6785;SDS011;3430;51.192;6.048;2022-09-02T05:54:51;2.27;;;1.70;;
6785;SDS011;3430;51.192;6.048;2022-09-02T05:57:16;3.63;;;1.90;;
6785;SDS011;3430;51.192;6.048;2022-09-02T05:59:42;2.27;;;1.60;;
6785;SDS011;3430;51.192;6.048;2022-09-02T06:02:11;2.53;;;1.50;;
6785;SDS011;3430;51.192;6.048;2022-09-02T06:04:41;2.40;;;1.70;;
6785;SDS011;3430;51.192;6.048;2022-09-02T06:07:07;4.67;;;2.00;;
6785;SDS011;3430;51.192;6.048;2022-09-02T06:09:32;3.60;;;1.60;;
6785;SDS011;3430;51.192;6.048;2022-09-02T06:11:58;1.83;;;1.50;;
6785;SDS011;3430;51.192;6.048;2022-09-02T06:14:23;2.83;;;1.60;;
6785;SDS011;3430;51.192;6.048;2022-09-02T06:16:49;2.57;;;1.70;;
6785;SDS011;3430;51.192;6.048;2022-09-02T06:19:15;2.03;;;1.30;;
6785;SDS011;3430;51.192;6.048;2022-09-02T06:21:40;2.50;;;1.90;;
6785;SDS011;3430;51.192;6.048;2022-09-02T06:24:07;1.90;;;1.70;;
6785;SDS011;3430;51.192;6.048;2022-09-02T06:26:32;2.30;;;1.47;;
6785;SDS011;3430;51.192;6.048;2022-09-02T06:28:58;2.37;;;1.77;;
6785;SDS011;3430;51.192;6.048;2022-09-02T06:31:23;3.00;;;1.50;;
6785;SDS011;3430;51.192;6.048;2022-09-02T06:33:50;2.20;;;1.60;;
6785;SDS011;3430;51.192;6.048;2022-09-02T06:36:16;2.03;;;1.50;;
6785;SDS011;3430;51.192;6.048;2022-09-02T06:38:42;1.83;;;1.60;;
6785;SDS011;3430;51.192;6.048;2022-09-02T06:41:11;2.17;;;1.70;;
6785;SDS011;3430;51.192;6.048;2022-09-02T06:43:37;2.53;;;1.80;;
6785;SDS011;3430;51.192;6.048;2022-09-02T06:46:03;2.40;;;1.53;;
6785;SDS011;3430;51.192;6.048;2022-09-02T06:48:28;2.37;;;1.60;;
6785;SDS011;3430;51.192;6.048;2022-09-02T06:50:53;1.80;;;1.50;;
6785;SDS011;3430;51.192;6.048;2022-09-02T06:53:19;2.07;;;1.67;;
6785;SDS011;3430;51.192;6.048;2022-09-02T06:55:44;3.40;;;2.37;;
6785;SDS011;3430;51.192;6.048;2022-09-02T06:58:10;3.53;;;1.70;;
6785;SDS011;3430;51.192;6.048;2022-09-02T07:00:36;2.07;;;1.70;;
6785;SDS011;3430;51.192;6.048;2022-09-02T07:03:01;2.93;;;1.80;;
6785;SDS011;3430;51.192;6.048;2022-09-02T07:05:46;3.40;;;1.67;;
6785;SDS011;3430;51.192;6.048;2022-09-02T07:08:11;3.00;;;1.93;;
6785;SDS011;3430;51.192;6.048;2022-09-02T07:10:39;2.83;;;2.00;;
6785;SDS011;3430;51.192;6.048;2022-09-02T07:13:05;7.20;;;2.27;;
6785;SDS011;3430;51.192;6.048;2022-09-02T07:15:31;3.57;;;2.13;;
6785;SDS011;3430;51.192;6.048;2022-09-02T07:17:56;1.80;;;1.30;;
6785;SDS011;3430;51.192;6.048;2022-09-02T07:20:22;2.70;;;1.70;;
6785;SDS011;3430;51.192;6.048;2022-09-02T07:22:47;4.97;;;1.83;;
6785;SDS011;3430;51.192;6.048;2022-09-02T07:25:14;5.67;;;1.60;;
6785;SDS011;3430;51.192;6.048;2022-09-02T07:27:39;2.67;;;1.63;;
6785;SDS011;3430;51.192;6.048;2022-09-02T07:30:05;1.90;;;1.60;;
6785;SDS011;3430;51.192;6.048;2022-09-02T07:32:30;2.03;;;1.83;;
6785;SDS011;3430;51.192;6.048;2022-09-02T07:34:56;7.17;;;1.90;;
6785;SDS011;3430;51.192;6.048;2022-09-02T07:37:22;1.90;;;1.60;;
6785;SDS011;3430;51.192;6.048;2022-09-02T07:39:47;2.80;;;1.80;;
6785;SDS011;3430;51.192;6.048;2022-09-02T07:42:14;2.50;;;1.77;;
6785;SDS011;3430;51.192;6.048;2022-09-02T07:44:39;1.97;;;1.77;;
6785;SDS011;3430;51.192;6.048;2022-09-02T07:47:05;3.57;;;1.90;;
6785;SDS011;3430;51.192;6.048;2022-09-02T07:49:30;6.37;;;1.90;;
6785;SDS011;3430;51.192;6.048;2022-09-02T07:51:56;3.97;;;2.83;;
6785;SDS011;3430;51.192;6.048;2022-09-02T07:54:22;3.27;;;1.80;;
6785;SDS011;3430;51.192;6.048;2022-09-02T07:56:51;4.23;;;1.70;;
6785;SDS011;3430;51.192;6.048;2022-09-02T07:59:16;4.10;;;1.73;;
6785;SDS011;3430;51.192;6.048;2022-09-02T08:01:42;4.13;;;1.50;;
6785;SDS011;3430;51.192;6.048;2022-09-02T08:04:08;2.97;;;1.50;;
6785;SDS011;3430;51.192;6.048;2022-09-02T08:06:33;5.33;;;1.60;;
6785;SDS011;3430;51.192;6.048;2022-09-02T08:08:58;3.60;;;1.97;;
6785;SDS011;3430;51.192;6.048;2022-09-02T08:11:24;2.07;;;1.67;;
6785;SDS011;3430;51.192;6.048;2022-09-02T08:13:49;4.00;;;1.60;;
6785;SDS011;3430;51.192;6.048;2022-09-02T08:16:15;1.90;;;1.60;;
6785;SDS011;3430;51.192;6.048;2022-09-02T08:18:41;4.80;;;1.70;;
6785;SDS011;3430;51.192;6.048;2022-09-02T08:21:06;4.17;;;2.00;;
6785;SDS011;3430;51.192;6.048;2022-09-02T08:23:31;6.33;;;1.50;;
6785;SDS011;3430;51.192;6.048;2022-09-02T08:26:00;2.83;;;1.60;;
6785;SDS011;3430;51.192;6.048;2022-09-02T08:28:26;1.63;;;1.53;;
6785;SDS011;3430;51.192;6.048;2022-09-02T08:30:52;2.57;;;1.70;;
6785;SDS011;3430;51.192;6.048;2022-09-02T08:33:18;1.87;;;1.60;;
6785;SDS011;3430;51.192;6.048;2022-09-02T08:35:44;2.33;;;1.73;;
6785;SDS011;3430;51.192;6.048;2022-09-02T08:38:09;2.73;;;1.70;;
6785;SDS011;3430;51.192;6.048;2022-09-02T08:40:39;2.37;;;1.50;;
6785;SDS011;3430;51.192;6.048;2022-09-02T08:45:49;2.50;;;2.03;;
6785;SDS011;3430;51.192;6.048;2022-09-02T08:48:18;2.90;;;1.80;;
6785;SDS011;3430;51.192;6.048;2022-09-02T08:50:45;5.43;;;1.77;;
6785;SDS011;3430;51.192;6.048;2022-09-02T08:56:01;7.83;;;3.27;;
6785;SDS011;3430;51.192;6.048;2022-09-02T08:58:31;6.13;;;1.90;;
6785;SDS011;3430;51.192;6.048;2022-09-02T09:01:01;2.17;;;1.83;;
6785;SDS011;3430;51.192;6.048;2022-09-02T09:03:37;3.10;;;1.80;;
6785;SDS011;3430;51.192;6.048;2022-09-02T09:09:08;4.60;;;1.90;;
6785;SDS011;3430;51.192;6.048;2022-09-02T09:11:55;2.43;;;1.90;;
6785;SDS011;3430;51.192;6.048;2022-09-02T09:14:32;2.60;;;1.80;;
6785;SDS011;3430;51.192;6.048;2022-09-02T09:16:59;2.90;;;1.80;;
6785;SDS011;3430;51.192;6.048;2022-09-02T09:19:33;3.27;;;1.80;;
6785;SDS011;3430;51.192;6.048;2022-09-02T09:22:00;2.60;;;1.80;;
6785;SDS011;3430;51.192;6.048;2022-09-02T09:27:03;2.80;;;1.70;;
6785;SDS011;3430;51.192;6.048;2022-09-02T09:29:31;2.57;;;1.70;;
6785;SDS011;3430;51.192;6.048;2022-09-02T09:31:56;2.07;;;1.80;;
6785;SDS011;3430;51.192;6.048;2022-09-02T09:34:22;5.87;;;1.93;;
6785;SDS011;3430;51.192;6.048;2022-09-02T09:39:27;2.00;;;1.80;;
6785;SDS011;3430;51.192;6.048;2022-09-02T09:42:08;4.10;;;2.30;;
6785;SDS011;3430;51.192;6.048;2022-09-02T09:44:43;2.97;;;2.13;;
6785;SDS011;3430;51.192;6.048;2022-09-02T09:49:43;2.57;;;2.03;;
6785;SDS011;3430;51.192;6.048;2022-09-02T09:52:08;2.73;;;2.07;;
6785;SDS011;3430;51.192;6.048;2022-09-02T09:54:34;4.27;;;2.00;;
6785;SDS011;3430;51.192;6.048;2022-09-02T09:57:12;2.50;;;2.30;;
6785;SDS011;3430;51.192;6.048;2022-09-02T09:59:39;4.90;;;2.10;;
6785;SDS011;3430;51.192;6.048;2022-09-02T10:02:09;2.30;;;2.10;;
6785;SDS011;3430;51.192;6.048;2022-09-02T10:04:37;5.97;;;2.30;;
6785;SDS011;3430;51.192;6.048;2022-09-02T10:07:02;2.47;;;2.27;;
6785;SDS011;3430;51.192;6.048;2022-09-02T10:09:32;4.13;;;2.33;;
6785;SDS011;3430;51.192;6.048;2022-09-02T10:12:02;7.03;;;2.57;;
6785;SDS011;3430;51.192;6.048;2022-09-02T10:14:33;2.93;;;2.00;;
6785;SDS011;3430;51.192;6.048;2022-09-02T10:27:15;3.17;;;2.00;;
6785;SDS011;3430;51.192;6.048;2022-09-02T10:29:56;2.20;;;1.90;;
6785;SDS011;3430;51.192;6.048;2022-09-02T10:35:00;3.00;;;2.03;;
6785;SDS011;3430;51.192;6.048;2022-09-02T10:40:13;2.47;;;2.03;;
6785;SDS011;3430;51.192;6.048;2022-09-02T10:45:36;6.20;;;2.10;;
6785;SDS011;3430;51.192;6.048;2022-09-02T10:48:12;2.40;;;2.20;;
6785;SDS011;3430;51.192;6.048;2022-09-02T10:50:55;2.83;;;1.90;;
6785;SDS011;3430;51.192;6.048;2022-09-02T10:56:10;2.10;;;1.90;;
6785;SDS011;3430;51.192;6.048;2022-09-02T10:58:43;4.33;;;2.00;;
6785;SDS011;3430;51.192;6.048;2022-09-02T11:01:10;3.03;;;2.07;;
6785;SDS011;3430;51.192;6.048;2022-09-02T11:03:40;2.47;;;2.27;;
6785;SDS011;3430;51.192;6.048;2022-09-02T11:06:29;2.53;;;1.90;;
6785;SDS011;3430;51.192;6.048;2022-09-02T11:09:55;2.63;;;1.83;;
6785;SDS011;3430;51.192;6.048;2022-09-02T11:16:40;2.60;;;2.10;;
6785;SDS011;3430;51.192;6.048;2022-09-02T11:19:25;3.70;;;2.40;;
6785;SDS011;3430;51.192;6.048;2022-09-02T11:29:34;6.33;;;2.30;;
6785;SDS011;3430;51.192;6.048;2022-09-02T11:35:06;5.30;;;2.27;;
6785;SDS011;3430;51.192;6.048;2022-09-02T11:39:50;10.70;;;2.60;;
6785;SDS011;3430;51.192;6.048;2022-09-02T11:45:13;2.40;;;2.20;;
6785;SDS011;3430;51.192;6.048;2022-09-02T11:50:22;3.30;;;2.50;;
6785;SDS011;3430;51.192;6.048;2022-09-02T11:53:05;4.47;;;2.53;;
6785;SDS011;3430;51.192;6.048;2022-09-02T11:55:37;2.83;;;2.50;;
6785;SDS011;3430;51.192;6.048;2022-09-02T11:58:03;3.27;;;2.60;;
6785;SDS011;3430;51.192;6.048;2022-09-02T12:01:02;2.63;;;2.43;;
6785;SDS011;3430;51.192;6.048;2022-09-02T12:03:23;4.80;;;2.97;;
6785;SDS011;3430;51.192;6.048;2022-09-02T12:06:03;2.73;;;2.20;;
6785;SDS011;3430;51.192;6.048;2022-09-02T12:11:00;2.13;;;1.93;;
6785;SDS011;3430;51.192;6.048;2022-09-02T12:18:43;2.60;;;2.30;;
6785;SDS011;3430;51.192;6.048;2022-09-02T12:21:10;2.83;;;2.30;;
6785;SDS011;3430;51.192;6.048;2022-09-02T12:28:45;2.63;;;2.17;;
6785;SDS011;3430;51.192;6.048;2022-09-02T12:31:15;2.63;;;2.27;;
6785;SDS011;3430;51.192;6.048;2022-09-02T12:33:43;5.13;;;2.50;;
6785;SDS011;3430;51.192;6.048;2022-09-02T12:36:43;2.60;;;2.40;;
6785;SDS011;3430;51.192;6.048;2022-09-02T12:39:19;4.30;;;2.40;;
6785;SDS011;3430;51.192;6.048;2022-09-02T12:41:41;2.40;;;2.20;;
6785;SDS011;3430;51.192;6.048;2022-09-02T12:44:20;2.60;;;2.37;;
6785;SDS011;3430;51.192;6.048;2022-09-02T12:51:57;2.60;;;2.30;;
6785;SDS011;3430;51.192;6.048;2022-09-02T12:54:26;2.57;;;2.37;;
6785;SDS011;3430;51.192;6.048;2022-09-02T12:56:55;6.10;;;2.90;;
6785;SDS011;3430;51.192;6.048;2022-09-02T12:59:39;2.63;;;2.43;;
6785;SDS011;3430;51.192;6.048;2022-09-02T13:08:00;3.40;;;2.20;;
6785;SDS011;3430;51.192;6.048;2022-09-02T13:10:41;2.60;;;2.40;;
6785;SDS011;3430;51.192;6.048;2022-09-02T13:31:38;5.13;;;2.87;;
6785;SDS011;3430;51.192;6.048;2022-09-02T13:34:10;3.53;;;2.27;;
6785;SDS011;3430;51.192;6.048;2022-09-02T13:36:37;2.93;;;2.30;;
6785;SDS011;3430;51.192;6.048;2022-09-02T13:41:39;2.53;;;2.33;;
6785;SDS011;3430;51.192;6.048;2022-09-02T13:44:08;2.30;;;2.10;;
6785;SDS011;3430;51.192;6.048;2022-09-02T13:49:40;5.33;;;2.87;;
6785;SDS011;3430;51.192;6.048;2022-09-02T13:52:06;6.57;;;3.03;;
6785;SDS011;3430;51.192;6.048;2022-09-02T13:54:36;3.77;;;2.30;;
6785;SDS011;3430;51.192;6.048;2022-09-02T13:57:06;5.60;;;2.67;;
6785;SDS011;3430;51.192;6.048;2022-09-02T13:59:36;3.93;;;2.27;;
6785;SDS011;3430;51.192;6.048;2022-09-02T14:04:42;2.97;;;2.30;;
6785;SDS011;3430;51.192;6.048;2022-09-02T14:07:08;3.30;;;2.70;;
6785;SDS011;3430;51.192;6.048;2022-09-02T14:09:34;8.90;;;2.53;;
6785;SDS011;3430;51.192;6.048;2022-09-02T14:12:00;2.80;;;2.50;;
6785;SDS011;3430;51.192;6.048;2022-09-02T14:14:26;7.67;;;2.43;;
6785;SDS011;3430;51.192;6.048;2022-09-02T14:16:52;2.77;;;2.57;;
6785;SDS011;3430;51.192;6.048;2022-09-02T14:19:37;14.87;;;2.50;;
6785;SDS011;3430;51.192;6.048;2022-09-02T14:22:02;2.90;;;2.20;;
6785;SDS011;3430;51.192;6.048;2022-09-02T14:24:30;2.90;;;2.60;;
6785;SDS011;3430;51.192;6.048;2022-09-02T14:27:01;4.57;;;2.40;;
6785;SDS011;3430;51.192;6.048;2022-09-02T14:29:27;3.73;;;2.17;;
6785;SDS011;3430;51.192;6.048;2022-09-02T14:34:47;5.17;;;2.13;;
6785;SDS011;3430;51.192;6.048;2022-09-02T14:37:46;5.07;;;2.30;;
6785;SDS011;3430;51.192;6.048;2022-09-02T14:42:41;4.57;;;2.47;;
6785;SDS011;3430;51.192;6.048;2022-09-02T14:45:08;3.03;;;2.17;;
6785;SDS011;3430;51.192;6.048;2022-09-02T14:47:35;3.33;;;2.37;;
6785;SDS011;3430;51.192;6.048;2022-09-02T14:50:01;2.27;;;2.07;;
6785;SDS011;3430;51.192;6.048;2022-09-02T14:52:29;4.33;;;2.10;;
6785;SDS011;3430;51.192;6.048;2022-09-02T14:54:55;6.40;;;2.07;;
6785;SDS011;3430;51.192;6.048;2022-09-02T14:57:27;3.87;;;2.07;;
6785;SDS011;3430;51.192;6.048;2022-09-02T14:59:54;2.83;;;2.30;;
6785;SDS011;3430;51.192;6.048;2022-09-02T15:04:47;3.03;;;2.40;;
6785;SDS011;3430;51.192;6.048;2022-09-02T15:07:13;6.57;;;2.20;;
6785;SDS011;3430;51.192;6.048;2022-09-02T15:09:38;1.90;;;1.80;;
6785;SDS011;3430;51.192;6.048;2022-09-02T15:12:04;2.63;;;2.00;;
6785;SDS011;3430;51.192;6.048;2022-09-02T15:14:30;3.63;;;1.90;;
6785;SDS011;3430;51.192;6.048;2022-09-02T15:16:55;3.63;;;1.93;;
6785;SDS011;3430;51.192;6.048;2022-09-02T15:19:21;2.27;;;1.97;;
6785;SDS011;3430;51.192;6.048;2022-09-02T15:21:47;3.00;;;2.37;;
6785;SDS011;3430;51.192;6.048;2022-09-02T15:24:12;4.17;;;2.03;;
6785;SDS011;3430;51.192;6.048;2022-09-02T15:26:37;2.40;;;2.20;;
6785;SDS011;3430;51.192;6.048;2022-09-02T15:29:02;2.43;;;2.23;;
6785;SDS011;3430;51.192;6.048;2022-09-02T15:31:28;3.47;;;2.00;;
6785;SDS011;3430;51.192;6.048;2022-09-02T15:33:53;2.40;;;2.20;;
6785;SDS011;3430;51.192;6.048;2022-09-02T15:36:18;2.40;;;2.20;;
6785;SDS011;3430;51.192;6.048;2022-09-02T15:38:45;2.40;;;2.00;;
6785;SDS011;3430;51.192;6.048;2022-09-02T15:41:14;3.77;;;2.13;;
6785;SDS011;3430;51.192;6.048;2022-09-02T15:43:40;2.07;;;1.97;;
6785;SDS011;3430;51.192;6.048;2022-09-02T15:46:18;1.87;;;1.77;;
6785;SDS011;3430;51.192;6.048;2022-09-02T15:48:44;2.77;;;2.10;;
6785;SDS011;3430;51.192;6.048;2022-09-02T15:51:10;2.80;;;2.00;;
6785;SDS011;3430;51.192;6.048;2022-09-02T15:53:36;2.07;;;1.87;;
6785;SDS011;3430;51.192;6.048;2022-09-02T15:56:01;2.77;;;2.30;;
6785;SDS011;3430;51.192;6.048;2022-09-02T15:58:26;2.80;;;2.40;;
6785;SDS011;3430;51.192;6.048;2022-09-02T16:00:52;5.50;;;2.00;;
6785;SDS011;3430;51.192;6.048;2022-09-02T16:03:17;2.87;;;1.80;;
6785;SDS011;3430;51.192;6.048;2022-09-02T16:05:42;4.80;;;1.80;;
6785;SDS011;3430;51.192;6.048;2022-09-02T16:08:07;2.23;;;1.67;;
6785;SDS011;3430;51.192;6.048;2022-09-02T16:10:34;2.10;;;1.90;;
6785;SDS011;3430;51.192;6.048;2022-09-02T16:13:00;4.33;;;2.00;;
6785;SDS011;3430;51.192;6.048;2022-09-02T16:15:26;4.00;;;2.20;;
6785;SDS011;3430;51.192;6.048;2022-09-02T16:17:52;1.83;;;1.73;;
6785;SDS011;3430;51.192;6.048;2022-09-02T16:20:17;5.27;;;2.63;;
6785;SDS011;3430;51.192;6.048;2022-09-02T16:22:43;2.47;;;2.27;;
6785;SDS011;3430;51.192;6.048;2022-09-02T16:25:08;2.60;;;2.40;;
6785;SDS011;3430;51.192;6.048;2022-09-02T16:27:33;2.47;;;2.27;;
6785;SDS011;3430;51.192;6.048;2022-09-02T16:30:17;4.97;;;2.20;;
6785;SDS011;3430;51.192;6.048;2022-09-02T16:32:43;2.03;;;1.83;;
6785;SDS011;3430;51.192;6.048;2022-09-02T16:35:08;4.47;;;2.10;;
6785;SDS011;3430;51.192;6.048;2022-09-02T16:37:33;2.33;;;1.70;;
6785;SDS011;3430;51.192;6.048;2022-09-02T16:39:59;2.40;;;2.20;;
6785;SDS011;3430;51.192;6.048;2022-09-02T16:42:25;2.33;;;2.00;;
6785;SDS011;3430;51.192;6.048;2022-09-02T16:44:50;2.53;;;2.10;;
6785;SDS011;3430;51.192;6.048;2022-09-02T16:47:15;2.93;;;1.80;;
6785;SDS011;3430;51.192;6.048;2022-09-02T16:49:41;2.30;;;2.10;;
6785;SDS011;3430;51.192;6.048;2022-09-02T16:52:06;2.87;;;2.10;;
6785;SDS011;3430;51.192;6.048;2022-09-02T16:54:31;2.33;;;2.00;;
6785;SDS011;3430;51.192;6.048;2022-09-02T16:56:57;1.90;;;1.80;;
6785;SDS011;3430;51.192;6.048;2022-09-02T16:59:22;1.90;;;1.80;;
6785;SDS011;3430;51.192;6.048;2022-09-02T17:01:47;2.13;;;1.77;;
6785;SDS011;3430;51.192;6.048;2022-09-02T17:04:13;2.23;;;2.03;;
6785;SDS011;3430;51.192;6.048;2022-09-02T17:06:38;2.30;;;1.83;;
6785;SDS011;3430;51.192;6.048;2022-09-02T17:09:03;2.17;;;1.90;;
6785;SDS011;3430;51.192;6.048;2022-09-02T17:11:30;4.20;;;1.90;;
6785;SDS011;3430;51.192;6.048;2022-09-02T17:13:59;2.40;;;2.20;;
6785;SDS011;3430;51.192;6.048;2022-09-02T17:16:26;5.07;;;1.90;;